Time;durP1;ratioP1;P1;durP2;ratioP2;P2;SDS_P1;SDS_P2;PMS_P1;PMS_P2;Temp;Humidity;BMP_temperature;BMP_pressure;BME280_temperature;BME280_humidity;BME280_pressure;Samples;Min_cycle;Max_cycle;Signal;HPM_P1;HPM_P2
2023/01/02 00:00:41;;;;;;;5.22;2.80;;;;;;;12.88;47.64;100793.44;4994856;28;20066;-82
2023/01/02 00:03:09;;;;;;;5.40;2.80;;;;;;;12.90;47.83;100793.28;4995264;28;20042;-82
2023/01/02 00:05:38;;;;;;;4.88;2.38;;;;;;;12.92;47.95;100787.63;4995879;28;20101;-81
2023/01/02 00:08:06;;;;;;;4.63;2.50;;;;;;;12.93;48.09;100792.13;4998361;28;20046;-82
2023/01/02 00:10:33;;;;;;;5.10;2.55;;;;;;;12.94;47.44;100786.47;4996031;28;20573;-80
2023/01/02 00:13:01;;;;;;;6.18;2.40;;;;;;;12.94;47.88;100777.38;4994400;28;20524;-81
2023/01/02 00:15:31;;;;;;;4.28;2.38;;;;;;;12.96;47.62;100775.31;4991743;28;20038;-81
2023/01/02 00:17:59;;;;;;;5.70;2.47;;;;;;;12.94;47.64;100771.88;4995588;28;20057;-81
2023/01/02 00:20:27;;;;;;;6.68;2.47;;;;;;;12.94;47.82;100777.38;4993020;28;20109;-80
2023/01/02 00:22:55;;;;;;;5.03;2.13;;;;;;;12.94;48.29;100771.88;5006429;28;20413;-80
2023/01/02 00:25:23;;;;;;;5.78;2.45;;;;;;;12.93;47.90;100784.75;4990716;28;20054;-81
2023/01/02 00:27:51;;;;;;;5.65;2.20;;;;;;;12.91;48.11;100786.78;4993094;28;20054;-80
2023/01/02 00:30:19;;;;;;;4.63;2.33;;;;;;;12.92;48.50;100779.41;4991807;28;20042;-80
2023/01/02 00:32:48;;;;;;;5.72;2.40;;;;;;;12.92;48.41;100774.78;4995487;28;20042;-80
2023/01/02 00:35:16;;;;;;;4.10;2.30;;;;;;;12.91;48.26;100788.66;4993094;28;20053;-81
2023/01/02 00:37:44;;;;;;;5.95;2.85;;;;;;;12.89;48.19;100791.53;4993567;28;20033;-80
2023/01/02 00:40:13;;;;;;;5.22;2.22;;;;;;;12.89;48.57;100791.53;4993779;28;20363;-80
2023/01/02 00:42:41;;;;;;;5.18;2.65;;;;;;;12.90;48.77;100778.69;4992642;28;20504;-80
2023/01/02 00:45:10;;;;;;;4.55;2.20;;;;;;;12.89;48.26;100780.56;4982572;28;20046;-81
2023/01/02 00:47:39;;;;;;;4.93;2.15;;;;;;;12.87;48.22;100786.19;4995212;28;20077;-82
2023/01/02 00:50:08;;;;;;;4.95;2.90;;;;;;;12.88;48.72;100784.31;4991183;28;20042;-81
2023/01/02 00:52:36;;;;;;;4.07;2.25;;;;;;;12.86;48.73;100778.13;4987640;28;20051;-80
2023/01/02 00:55:05;;;;;;;5.15;2.33;;;;;;;12.85;48.98;100777.28;4990425;28;20512;-79
2023/01/02 00:57:33;;;;;;;5.75;2.70;;;;;;;12.83;48.61;100776.53;4990477;28;20354;-79
2023/01/02 01:00:00;;;;;;;4.55;2.40;;;;;;;12.82;49.02;100777.56;4990088;28;20529;-79
2023/01/02 01:02:28;;;;;;;7.55;2.60;;;;;;;12.83;48.61;100771.06;4989704;28;20042;-80
2023/01/02 01:04:57;;;;;;;7.05;2.33;;;;;;;12.83;49.04;100776.53;4990148;28;20417;-79
2023/01/02 01:07:26;;;;;;;5.65;2.40;;;;;;;12.85;49.12;100758.03;4990709;28;20523;-79
2023/01/02 01:09:54;;;;;;;5.85;2.45;;;;;;;12.82;48.90;100766.56;4989342;28;20501;-80
2023/01/02 01:12:22;;;;;;;6.10;2.42;;;;;;;12.83;49.29;100761.94;4991996;28;20038;-81
2023/01/02 01:14:50;;;;;;;5.78;2.50;;;;;;;12.83;49.29;100757.31;4990684;28;20047;-79
2023/01/02 01:17:18;;;;;;;5.68;2.63;;;;;;;12.83;49.37;100767.44;4989375;28;20402;-78
2023/01/02 01:19:45;;;;;;;4.22;2.30;;;;;;;12.82;48.89;100752.84;4991257;28;20054;-80
2023/01/02 01:22:13;;;;;;;4.68;1.95;;;;;;;12.83;49.03;100753.72;4988736;28;20050;-79
2023/01/02 01:24:42;;;;;;;5.13;2.20;;;;;;;12.83;49.14;100762.81;4990246;28;20046;-79
2023/01/02 01:27:10;;;;;;;5.82;2.40;;;;;;;12.83;49.48;100756.44;4986208;28;20046;-78
2023/01/02 01:29:38;;;;;;;4.13;2.05;;;;;;;12.83;49.48;100748.22;4989079;28;20531;-78
2023/01/02 01:32:06;;;;;;;4.78;2.10;;;;;;;12.84;49.13;100750.81;4991357;28;20401;-80
2023/01/02 01:34:34;;;;;;;4.55;1.95;;;;;;;12.84;49.30;100759.06;4990466;28;20055;-79
2023/01/02 01:37:02;;;;;;;4.35;2.00;;;;;;;12.83;49.12;100751.81;4990611;28;20054;-78
2023/01/02 01:39:30;;;;;;;5.50;2.28;;;;;;;12.83;48.92;100746.34;4999897;28;20046;-79
2023/01/02 01:42:00;;;;;;;5.72;2.33;;;;;;;12.86;49.09;100747.91;4988009;28;20054;-79
2023/01/02 01:44:46;;;;;;;5.78;2.30;;;;;;;12.84;49.08;100749.94;4983890;28;20559;-79
2023/01/02 01:47:21;;;;;;;5.95;2.15;;;;;;;12.83;49.19;100750.97;4988734;28;20088;-80
2023/01/02 01:49:54;;;;;;;5.25;2.28;;;;;;;12.83;48.62;100756.44;4992922;28;20042;-79
2023/01/02 01:52:31;;;;;;;5.45;2.00;;;;;;;12.82;49.09;100741.00;4994541;28;20471;-80
2023/01/02 01:55:06;;;;;;;5.32;2.10;;;;;;;12.85;48.78;100758.03;4991227;28;20531;-78
2023/01/02 01:57:39;;;;;;;5.82;2.55;;;;;;;12.85;48.59;100760.78;4987697;28;20056;-78
2023/01/02 02:00:08;;;;;;;5.60;2.10;;;;;;;12.84;48.79;100763.69;4977776;28;20043;-80
2023/01/02 02:02:36;;;;;;;5.05;2.53;;;;;;;12.83;48.47;100764.69;4990082;28;20046;-82
2023/01/02 02:05:07;;;;;;;5.15;2.22;;;;;;;12.84;48.55;100756.31;4990470;28;20046;-80
2023/01/02 02:07:37;;;;;;;3.78;1.92;;;;;;;12.84;48.53;100759.06;4992495;28;20034;-79
2023/01/02 02:10:07;;;;;;;4.05;1.92;;;;;;;12.85;48.32;100766.28;4992695;28;20137;-80
2023/01/02 02:12:37;;;;;;;5.93;1.90;;;;;;;12.85;48.17;100770.91;4986323;28;20137;-80
2023/01/02 02:15:07;;;;;;;4.18;1.98;;;;;;;12.85;48.19;100782.75;4988258;28;20046;-80
2023/01/02 02:17:49;;;;;;;5.57;2.10;;;;;;;12.87;48.59;100777.97;4985729;28;20050;-79
2023/01/02 02:20:30;;;;;;;3.35;2.05;;;;;;;12.85;48.47;100770.91;4989916;28;20110;-82
2023/01/02 02:23:38;;;;;;;4.20;2.17;;;;;;;12.84;48.62;100775.53;4992697;28;20038;-80
2023/01/02 02:26:25;;;;;;;4.65;1.92;;;;;;;12.87;48.67;100766.13;4984092;28;20042;-82
2023/01/02 02:29:16;;;;;;;4.43;1.98;;;;;;;12.88;48.59;100759.59;4993934;28;20104;-81
2023/01/02 02:31:52;;;;;;;5.40;1.95;;;;;;;12.87;48.19;100772.47;4988229;28;20058;-81
2023/01/02 02:34:25;;;;;;;7.13;2.38;;;;;;;12.89;48.46;100766.81;4989485;28;20062;-81
2023/01/02 02:37:01;;;;;;;3.55;2.00;;;;;;;12.91;48.12;100783.16;4983243;28;20042;-81
2023/01/02 02:39:37;;;;;;;6.38;2.28;;;;;;;12.91;48.39;100777.66;4998648;28;20058;-82
2023/01/02 02:42:15;;;;;;;6.47;2.60;;;;;;;12.90;47.86;100760.31;4990671;28;20150;-82
2023/01/02 02:44:56;;;;;;;5.82;2.25;;;;;;;12.92;47.88;100763.78;4992716;28;20073;-82
2023/01/02 02:47:33;;;;;;;4.45;2.10;;;;;;;12.93;48.38;100767.41;4991998;28;20046;-80
2023/01/02 02:50:09;;;;;;;3.50;2.00;;;;;;;12.92;48.38;100744.56;4987812;28;20050;-81
2023/01/02 02:52:43;;;;;;;6.00;1.90;;;;;;;12.92;48.17;100740.94;4993403;28;20046;-82
2023/01/02 02:55:15;;;;;;;4.25;2.20;;;;;;;12.93;48.19;100739.94;4991052;28;20101;-80
2023/01/02 02:57:44;;;;;;;4.50;2.13;;;;;;;12.91;48.08;100734.59;4988925;28;20031;-81
2023/01/02 03:00:17;;;;;;;7.47;2.60;;;;;;;12.94;48.04;100733.44;5009399;23;20057;-85
2023/01/02 03:02:50;;;;;;;4.40;2.15;;;;;;;12.92;48.41;100736.31;5004500;28;20104;-84
2023/01/02 03:05:25;;;;;;;5.13;2.22;;;;;;;12.93;47.92;100737.19;5004847;28;20133;-83
2023/01/02 03:07:58;;;;;;;3.80;2.20;;;;;;;12.91;47.90;100745.56;5019278;28;20046;-84
2023/01/02 03:10:30;;;;;;;;;;;;;;;12.63;48.46;100749.28;5008267;28;20054;-84
2023/01/02 03:13:11;;;;;;;3.90;1.70;;;;;;;12.87;47.94;100755.97;5008158;28;19925;-84
2023/01/02 03:15:41;;;;;;;5.07;2.10;;;;;;;12.89;48.08;100769.56;5006341;28;20183;-84
2023/01/02 03:18:23;;;;;;;4.38;1.92;;;;;;;12.92;48.11;100782.16;5008032;28;20520;-84
2023/01/02 03:21:00;;;;;;;5.45;1.95;;;;;;;12.92;48.05;100784.91;5012324;28;20048;-83
2023/01/02 03:23:31;;;;;;;5.50;2.15;;;;;;;12.89;47.91;100764.09;5009033;28;20064;-84
2023/01/02 03:25:59;;;;;;;5.28;2.00;;;;;;;12.88;48.00;100776.94;5003127;28;20069;-84
2023/01/02 03:28:27;;;;;;;4.47;1.98;;;;;;;12.89;48.03;100772.31;5010954;28;20088;-84
2023/01/02 03:31:25;;;;;;;5.80;2.03;;;;;;;12.85;47.97;100766.28;5008101;28;20049;-83
2023/01/02 03:34:04;;;;;;;4.00;1.92;;;;;;;12.88;48.50;100759.59;5005003;28;20128;-84
2023/01/02 03:36:33;;;;;;;5.72;2.08;;;;;;;12.86;48.08;100775.38;5008462;28;20126;-84
2023/01/02 03:39:07;;;;;;;4.50;1.90;;;;;;;12.87;48.33;100760.66;5009469;28;20397;-84
2023/01/02 03:41:38;;;;;;;5.20;2.10;;;;;;;12.86;48.02;100776.25;5009979;28;20460;-84
2023/01/02 03:44:10;;;;;;;5.38;2.30;;;;;;;12.86;47.79;100756.16;5008663;28;20042;-84
2023/01/02 03:46:51;;;;;;;5.22;2.20;;;;;;;12.83;48.15;100768.31;5006161;28;20046;-84
2023/01/02 03:49:23;;;;;;;5.20;2.20;;;;;;;12.85;48.12;100755.28;5011463;28;20038;-84
2023/01/02 03:51:51;;;;;;;3.88;1.98;;;;;;;12.82;47.82;100773.94;4988083;28;20592;-84
2023/01/02 03:54:20;;;;;;;4.88;2.33;;;;;;;12.83;47.86;100771.06;4991410;28;20390;-84
2023/01/02 03:56:56;;;;;;;4.68;2.20;;;;;;;12.85;47.89;100781.91;4994143;28;20130;-84
2023/01/02 03:59:37;;;;;;;4.80;2.10;;;;;;;12.84;48.15;100788.41;4997543;28;20565;-84
2023/01/02 04:02:11;;;;;;;4.47;2.25;;;;;;;12.84;47.83;100786.53;4996351;28;20078;-85
2023/01/02 04:04:48;;;;;;;5.72;2.13;;;;;;;12.85;47.89;100779.16;4990501;28;21766;-83
2023/01/02 04:07:33;;;;;;;3.90;2.20;;;;;;;12.83;48.18;100784.78;4984959;28;20050;-83
2023/01/02 04:10:02;;;;;;;4.88;2.00;;;;;;;12.81;48.23;100774.97;4981401;28;20130;-83
2023/01/02 04:12:48;;;;;;;4.43;2.20;;;;;;;12.83;48.13;100771.06;4982067;28;20043;-83
2023/01/02 04:15:19;;;;;;;5.53;2.20;;;;;;;12.81;47.78;100772.22;4984539;28;20169;-84
2023/01/02 04:17:50;;;;;;;5.60;2.20;;;;;;;12.82;47.68;100782.19;4997076;28;20054;-83
2023/01/02 04:20:23;;;;;;;5.63;2.50;;;;;;;12.82;47.85;100769.31;4984640;28;20057;-83
2023/01/02 04:22:55;;;;;;;5.65;2.00;;;;;;;12.81;48.11;100781.31;4983712;28;20505;-83
2023/01/02 04:25:29;;;;;;;4.05;1.92;;;;;;;12.82;48.18;100765.72;4988012;28;20364;-85
2023/01/02 04:28:01;;;;;;;4.10;2.40;;;;;;;12.80;47.84;100782.31;4986098;28;20339;-84
2023/01/02 04:30:36;;;;;;;4.70;2.38;;;;;;;12.80;47.90;100778.72;4988984;28;20477;-83
2023/01/02 04:33:14;;;;;;;3.83;1.88;;;;;;;12.81;47.57;100780.44;4980084;28;20051;-83
2023/01/02 04:35:44;;;;;;;5.63;2.10;;;;;;;12.79;48.04;100787.97;4990228;28;20050;-83
2023/01/02 04:38:15;;;;;;;5.22;2.00;;;;;;;12.81;47.85;100796.94;4989335;28;20054;-84
2023/01/02 04:40:53;;;;;;;6.00;2.08;;;;;;;12.77;47.33;100788.16;4985876;28;20581;-83
2023/01/02 04:43:54;;;;;;;5.65;2.42;;;;;;;12.76;47.82;100791.03;4988457;28;20053;-83
2023/01/02 04:46:21;;;;;;;;;;;;;;;12.49;48.01;100800.91;5002302;28;20046;-83
2023/01/02 04:48:50;;;;;;;4.68;1.85;;;;;;;12.73;47.91;100799.56;5012725;28;19921;-83
2023/01/02 04:51:36;;;;;;;4.25;2.00;;;;;;;12.78;47.18;100805.50;5023169;28;20401;-84
2023/01/02 04:54:05;;;;;;;4.72;2.15;;;;;;;12.77;47.63;100796.38;5014517;28;20046;-83
2023/01/02 04:56:33;;;;;;;4.65;1.77;;;;;;;12.79;47.51;100810.81;5005550;28;20037;-83
2023/01/02 04:59:04;;;;;;;4.50;1.95;;;;;;;12.81;47.06;100799.69;5015237;28;20046;-84
2023/01/02 05:01:44;;;;;;;4.78;1.90;;;;;;;12.83;47.09;100808.63;4991255;28;20061;-83
2023/01/02 05:04:30;;;;;;;5.85;2.00;;;;;;;12.80;47.21;100811.66;4982207;28;20038;-84
2023/01/02 05:10:04;;;;;;;3.97;1.80;;;;;;;12.82;47.32;100817.88;5000677;28;20061;-83
2023/01/02 05:12:34;;;;;;;4.82;2.00;;;;;;;12.82;47.44;100817.88;4992367;28;20266;-83
2023/01/02 05:15:15;;;;;;;4.28;1.80;;;;;;;12.84;47.16;100816.72;4989787;28;20106;-83
2023/01/02 05:17:43;;;;;;;4.60;1.83;;;;;;;12.82;47.12;100812.41;4987111;28;20057;-83
2023/01/02 05:20:12;;;;;;;4.80;1.90;;;;;;;12.84;47.54;100827.72;4990811;28;20058;-84
2023/01/02 05:25:32;;;;;;;5.07;2.30;;;;;;;12.85;47.13;100823.09;4988728;28;20085;-83
2023/01/02 05:28:01;;;;;;;5.55;2.20;;;;;;;12.86;47.08;100830.31;4984396;28;20078;-83
2023/01/02 05:30:29;;;;;;;4.10;2.03;;;;;;;12.87;47.73;100832.06;4992517;28;20453;-83
2023/01/02 05:32:57;;;;;;;5.05;1.90;;;;;;;12.86;47.53;100830.31;4993142;28;20042;-83
2023/01/02 05:35:29;;;;;;;6.55;2.05;;;;;;;12.87;47.74;100838.38;4997805;28;20046;-84
2023/01/02 05:38:02;;;;;;;5.13;1.83;;;;;;;12.87;47.30;100832.88;5015880;28;20050;-84
2023/01/02 05:40:32;;;;;;;4.03;1.75;;;;;;;12.86;47.56;100835.81;5011386;28;20049;-83
2023/01/02 05:43:01;;;;;;;5.55;2.00;;;;;;;12.85;47.53;100837.69;5013379;28;20056;-84
2023/01/02 05:45:33;;;;;;;4.38;1.80;;;;;;;12.86;47.62;100846.81;5002661;28;20069;-84
2023/01/02 05:48:01;;;;;;;4.20;1.73;;;;;;;12.86;47.61;100842.19;5013103;28;20050;-85
2023/01/02 05:50:29;;;;;;;4.45;1.75;;;;;;;12.86;47.82;100846.81;5013014;28;20049;-84
2023/01/02 05:52:57;;;;;;;4.82;1.83;;;;;;;12.86;47.87;100841.31;5012437;28;20092;-84
2023/01/02 05:55:26;;;;;;;3.22;1.55;;;;;;;12.87;47.66;100843.88;5011668;28;20042;-83
2023/01/02 05:57:55;;;;;;;5.57;1.80;;;;;;;12.88;47.46;100850.25;5014426;28;20052;-83
2023/01/02 06:00:22;;;;;;;4.70;1.80;;;;;;;12.87;47.47;100848.53;5011319;28;20500;-83
2023/01/02 06:02:53;;;;;;;5.07;1.90;;;;;;;12.87;47.87;100860.34;5013849;28;20046;-83
2023/01/02 06:05:45;;;;;;;3.50;1.70;;;;;;;12.91;47.60;100862.81;5000006;28;20620;-83
2023/01/02 06:08:15;;;;;;;4.50;1.70;;;;;;;12.86;48.02;100857.78;5009907;28;20046;-83
2023/01/02 06:13:35;;;;;;;3.63;1.90;;;;;;;12.87;47.67;100852.13;5007971;28;20061;-82
2023/01/02 06:16:14;;;;;;;3.25;1.40;;;;;;;12.88;48.02;100853.00;5010703;28;20073;-87
2023/01/02 06:18:49;;;;;;;4.63;1.60;;;;;;;12.89;47.99;100857.47;5021459;28;20505;-82
2023/01/02 06:21:42;;;;;;;4.72;1.67;;;;;;;12.86;48.13;100860.53;5014270;28;20038;-82
2023/01/02 06:24:23;;;;;;;3.17;1.48;;;;;;;12.87;48.39;100868.59;5005462;28;20045;-83
2023/01/02 06:27:08;;;;;;;2.80;1.40;;;;;;;12.87;48.06;100865.03;4990483;28;20057;-83
2023/01/02 06:29:52;;;;;;;2.60;1.40;;;;;;;12.83;47.71;100866.31;4989044;28;20046;-83
2023/01/02 06:32:20;;;;;;;4.07;1.50;;;;;;;12.87;47.93;100865.84;4988387;28;20045;-83
2023/01/02 06:38:01;;;;;;;2.42;1.30;;;;;;;12.84;48.27;100871.66;4980836;28;20050;-83
2023/01/02 06:40:29;;;;;;;3.10;1.60;;;;;;;12.88;48.01;100880.47;4988499;28;20128;-84
2023/01/02 06:43:02;;;;;;;2.72;1.40;;;;;;;12.92;47.88;100878.28;4985425;28;20047;-82
2023/01/02 06:45:30;;;;;;;3.70;1.50;;;;;;;12.88;47.79;100881.31;4984335;28;20416;-85
2023/01/02 06:48:01;;;;;;;4.70;1.58;;;;;;;12.91;48.05;100888.41;4986187;28;20054;-84
2023/01/02 06:53:37;;;;;;;2.40;1.38;;;;;;;12.90;48.37;100883.94;4982091;28;20129;-83
2023/01/02 06:56:07;;;;;;;3.25;1.50;;;;;;;12.91;48.20;100890.28;4979701;28;20130;-84
2023/01/02 06:58:38;;;;;;;2.67;1.30;;;;;;;12.92;47.78;100883.78;4991351;28;20134;-84
2023/01/02 07:01:19;;;;;;;3.08;1.30;;;;;;;12.93;48.18;100882.78;4988482;28;20051;-82
2023/01/02 07:07:25;;;;;;;2.78;1.30;;;;;;;12.87;48.28;100890.56;4983923;28;20042;-82
2023/01/02 07:09:56;;;;;;;2.00;1.25;;;;;;;12.91;47.77;100893.91;4992145;28;20070;-82
2023/01/02 07:12:25;;;;;;;2.72;1.60;;;;;;;12.90;47.78;100897.66;4992834;28;20050;-83
2023/01/02 07:14:54;;;;;;;3.10;1.50;;;;;;;12.93;48.22;100905.63;4982574;28;20053;-82
2023/01/02 07:17:22;;;;;;;3.03;1.80;;;;;;;12.92;48.23;100908.50;5005905;28;20169;-81
2023/01/02 07:19:50;;;;;;;3.70;1.27;;;;;;;12.91;47.92;100917.75;4998942;28;20042;-81
2023/01/02 07:22:24;;;;;;;3.25;1.27;;;;;;;12.91;48.03;100918.63;4989349;28;20505;-81
2023/01/02 07:24:52;;;;;;;3.00;1.35;;;;;;;12.92;47.95;100927.75;4996634;28;20081;-82
2023/01/02 07:27:20;;;;;;;2.88;1.25;;;;;;;12.90;48.21;100930.63;5023729;28;20096;-82
2023/01/02 07:29:48;;;;;;;4.55;1.60;;;;;;;12.91;48.17;100928.75;5003928;28;20068;-82
2023/01/02 07:32:17;;;;;;;3.67;1.60;;;;;;;12.92;48.18;100933.22;5006995;28;20050;-82
2023/01/02 07:34:54;;;;;;;3.50;1.38;;;;;;;12.89;48.66;100928.88;5018542;28;20497;-82
2023/01/02 07:37:22;;;;;;;2.15;1.40;;;;;;;12.88;48.58;100933.50;5009707;28;20038;-82
2023/01/02 07:39:56;;;;;;;3.70;1.40;;;;;;;12.91;48.55;100937.84;5006346;28;20515;-82
2023/01/02 07:42:24;;;;;;;3.72;1.40;;;;;;;12.88;48.63;100947.25;5005696;28;20499;-82
2023/01/02 07:44:52;;;;;;;3.92;1.60;;;;;;;12.88;48.52;100950.00;5004555;28;20591;-81
2023/01/02 07:47:21;;;;;;;3.40;1.70;;;;;;;12.90;48.33;100951.72;5007028;28;20397;-83
2023/01/02 07:49:50;;;;;;;3.30;1.60;;;;;;;12.86;48.35;100952.03;5003066;28;20429;-82
2023/01/02 07:52:20;;;;;;;3.22;1.58;;;;;;;12.85;48.41;100958.56;4992143;28;20053;-83
2023/01/02 07:54:50;;;;;;;2.57;1.30;;;;;;;12.83;48.50;100959.69;4990014;28;20468;-82
2023/01/02 07:57:19;;;;;;;3.05;1.45;;;;;;;12.83;48.84;100956.94;4990516;28;20077;-83
2023/01/02 07:59:48;;;;;;;3.50;1.40;;;;;;;12.83;48.47;100967.94;4987843;28;20054;-83
2023/01/02 08:02:16;;;;;;;2.38;1.40;;;;;;;12.82;48.97;100969.81;4991350;28;20056;-83
2023/01/02 08:04:46;;;;;;;3.55;1.50;;;;;;;12.83;48.82;100974.31;4987332;28;20055;-85
2023/01/02 08:07:14;;;;;;;2.97;1.45;;;;;;;12.80;49.01;100982.81;4986621;28;20042;-83
2023/01/02 08:09:42;;;;;;;4.75;1.77;;;;;;;12.79;48.91;100981.09;4993781;28;20043;-82
2023/01/02 08:12:12;;;;;;;3.75;1.50;;;;;;;12.79;48.85;100988.44;4987613;28;20050;-83
2023/01/02 08:14:40;;;;;;;4.45;1.63;;;;;;;12.78;49.00;100997.72;4983815;28;20143;-84
2023/01/02 08:17:08;;;;;;;2.92;1.40;;;;;;;12.77;48.94;101002.34;4989891;28;20043;-81
2023/01/02 08:19:36;;;;;;;3.65;1.73;;;;;;;12.76;49.28;101011.59;4989279;28;20046;-85
2023/01/02 08:22:05;;;;;;;3.40;1.30;;;;;;;12.75;49.15;101020.84;4995419;28;20046;-84
2023/01/02 08:24:33;;;;;;;4.00;1.60;;;;;;;12.74;49.39;101021.84;4990299;28;20409;-83
2023/01/02 08:27:12;;;;;;;4.10;1.50;;;;;;;12.75;49.73;101037.31;4986691;28;20060;-82
2023/01/02 08:29:51;;;;;;;3.70;1.50;;;;;;;12.69;49.48;101029.69;4983050;28;20069;-82
2023/01/02 08:32:20;;;;;;;3.33;1.63;;;;;;;12.70;49.35;101030.53;4977166;28;20394;-83
2023/01/02 08:34:49;;;;;;;4.93;2.20;;;;;;;12.69;49.30;101048.03;4991902;28;20053;-83
2023/01/02 08:37:18;;;;;;;3.67;1.80;;;;;;;12.69;49.36;101046.16;4993465;28;20046;-83
2023/01/02 08:39:46;;;;;;;2.80;1.52;;;;;;;12.65;49.48;101047.44;4989217;28;20129;-84
2023/01/02 08:42:14;;;;;;;3.80;1.80;;;;;;;12.64;49.67;101050.31;4990662;28;20046;-83
2023/01/02 08:44:42;;;;;;;3.17;1.48;;;;;;;12.63;49.32;101054.06;4987358;28;20049;-82
2023/01/02 08:47:10;;;;;;;2.22;1.48;;;;;;;12.61;49.43;101073.44;4992565;28;20073;-82
2023/01/02 08:49:38;;;;;;;3.08;1.40;;;;;;;12.60;49.45;101068.06;4994182;28;20390;-83
2023/01/02 08:52:06;;;;;;;2.67;1.45;;;;;;;12.59;49.97;101077.31;4978423;28;20547;-83
2023/01/02 08:54:36;;;;;;;3.25;1.40;;;;;;;12.60;50.00;101095.53;4986715;28;20046;-83
2023/01/02 08:57:04;;;;;;;2.58;1.50;;;;;;;12.57;50.03;101085.69;4994581;28;20041;-83
2023/01/02 08:59:32;;;;;;;2.67;1.48;;;;;;;12.55;50.00;101104.16;5018484;23;20049;-82
2023/01/02 09:01:59;;;;;;;2.85;1.92;;;;;;;12.55;50.02;101100.56;5029733;28;20141;-82
2023/01/02 09:04:28;;;;;;;3.50;1.50;;;;;;;12.54;49.72;101127.16;5030566;28;21138;-82
2023/01/02 09:06:56;;;;;;;2.75;1.40;;;;;;;12.53;49.42;101138.28;5032587;28;20141;-83
2023/01/02 09:09:24;;;;;;;2.60;1.40;;;;;;;12.50;49.30;101136.69;5025271;28;20415;-84
2023/01/02 09:11:54;;;;;;;2.55;1.30;;;;;;;12.48;49.17;101144.19;5034048;28;20056;-82
2023/01/02 09:14:22;;;;;;;2.53;0.90;;;;;;;12.44;49.28;101153.72;5032145;28;20042;-83
2023/01/02 09:16:51;;;;;;;1.17;0.60;;;;;;;12.40;49.43;101155.84;5041796;28;20038;-83
2023/01/02 09:19:19;;;;;;;1.52;0.63;;;;;;;12.33;49.59;101154.69;5029851;28;20067;-81
2023/01/02 09:21:47;;;;;;;1.63;0.77;;;;;;;12.31;49.43;101166.78;5029944;28;20075;-82
2023/01/02 09:24:15;;;;;;;1.30;0.70;;;;;;;12.28;49.61;101175.31;5028476;28;20287;-81
2023/01/02 09:26:43;;;;;;;1.30;0.70;;;;;;;12.25;49.30;101175.59;5031230;28;20045;-82
2023/01/02 09:29:14;;;;;;;0.82;0.57;;;;;;;12.24;49.60;101179.34;5030886;28;20041;-82
2023/01/02 09:31:42;;;;;;;1.42;0.80;;;;;;;12.18;49.58;101174.41;5024253;28;20041;-82
2023/01/02 09:34:10;;;;;;;0.80;0.52;;;;;;;12.17;49.81;101184.50;5030706;28;20038;-80
2023/01/02 09:36:39;;;;;;;1.00;0.57;;;;;;;12.15;49.98;101183.78;5028459;28;20124;-80
2023/01/02 09:39:08;;;;;;;1.17;0.60;;;;;;;12.13;49.45;101200.38;5024314;28;20042;-81
2023/01/02 09:41:38;;;;;;;0.68;0.47;;;;;;;12.13;49.35;101202.22;5027975;28;20148;-82
2023/01/02 09:44:10;;;;;;;1.25;0.60;;;;;;;12.12;49.57;101200.53;5029334;28;20033;-81
2023/01/02 09:46:48;;;;;;;1.30;0.50;;;;;;;12.09;49.89;101211.75;5031225;28;20065;-81
2023/01/02 09:49:19;;;;;;;1.38;0.70;;;;;;;12.07;49.87;101220.13;5029434;28;20087;-80
2023/01/02 09:51:48;;;;;;;1.20;0.65;;;;;;;12.05;49.67;101215.75;5033216;28;20420;-80
2023/01/02 09:54:22;;;;;;;1.25;0.60;;;;;;;12.07;50.22;101219.25;5031977;28;20033;-81
2023/01/02 09:56:59;;;;;;;1.02;0.52;;;;;;;12.06;50.19;101225.72;5026886;28;20565;-81
2023/01/02 09:59:31;;;;;;;2.20;0.80;;;;;;;12.04;49.71;101228.63;5029943;28;20046;-82
2023/01/02 10:02:11;;;;;;;0.98;0.68;;;;;;;12.02;49.73;101238.88;5029097;28;20056;-82
2023/01/02 10:04:54;;;;;;;1.13;0.65;;;;;;;12.02;49.60;101243.47;5025083;28;20526;-82
2023/01/02 10:07:30;;;;;;;1.65;0.88;;;;;;;12.00;49.71;101246.34;5024674;28;20053;-81
2023/01/02 10:10:06;;;;;;;2.13;1.00;;;;;;;12.02;49.31;101249.84;5024947;28;20046;-82
2023/01/02 10:12:42;;;;;;;1.70;0.93;;;;;;;12.00;49.26;101253.72;5022920;28;20376;-81
2023/01/02 10:15:15;;;;;;;1.30;1.00;;;;;;;12.00;49.43;101254.59;5040328;28;20137;-81
2023/01/02 10:17:50;;;;;;;1.13;1.00;;;;;;;12.00;49.32;101256.47;5041279;28;20045;-81
2023/01/02 10:20:26;;;;;;;1.80;1.08;;;;;;;11.99;49.49;101261.06;5026729;28;20484;-82
2023/01/02 10:23:01;;;;;;;1.40;0.90;;;;;;;11.99;49.39;101262.94;5030111;28;20053;-82
2023/01/02 10:25:33;;;;;;;1.77;1.20;;;;;;;11.98;49.58;101263.94;5028902;28;20049;-82
2023/01/02 10:28:09;;;;;;;;;;;;;;;11.69;50.18;101267.34;5032985;28;20405;-82
2023/01/02 10:30:41;;;;;;;1.83;1.10;;;;;;;11.92;49.47;101279.06;5030138;28;19925;-81
2023/01/02 10:33:18;;;;;;;2.33;1.30;;;;;;;11.94;49.89;101263.34;5033137;28;20042;-81
2023/01/02 10:35:53;;;;;;;2.47;1.30;;;;;;;11.94;49.27;101257.00;5030544;28;20284;-82
2023/01/02 10:38:21;;;;;;;1.63;1.00;;;;;;;11.93;49.45;101261.63;5046133;28;20109;-82
2023/01/02 10:40:50;;;;;;;2.33;1.20;;;;;;;11.95;49.91;101264.22;5031464;28;20064;-83
2023/01/02 10:43:19;;;;;;;2.05;1.35;;;;;;;11.94;49.96;101263.34;5047139;28;20095;-81
2023/01/02 10:45:47;;;;;;;2.20;1.10;;;;;;;11.94;49.39;101255.13;5027573;28;20052;-82
2023/01/02 10:48:16;;;;;;;2.28;1.40;;;;;;;11.97;49.52;101267.69;5029733;28;20112;-83
2023/01/02 10:50:48;;;;;;;2.72;1.50;;;;;;;11.98;49.54;101283.16;5029957;28;20045;-81
2023/01/02 10:53:21;;;;;;;2.67;1.50;;;;;;;11.96;49.44;101277.81;5031774;28;20041;-82
2023/01/02 10:55:49;;;;;;;2.03;1.30;;;;;;;11.96;49.38;101282.44;5029480;28;20767;-80
2023/01/02 10:58:21;;;;;;;2.85;1.50;;;;;;;11.98;49.78;101277.66;5030067;28;20478;-81
2023/01/02 11:00:51;;;;;;;2.70;1.55;;;;;;;11.95;49.88;101276.06;5029260;28;20187;-82
2023/01/02 11:03:24;;;;;;;4.18;1.63;;;;;;;11.97;49.95;101264.94;5048290;28;20049;-80
2023/01/02 11:05:53;;;;;;;3.25;1.77;;;;;;;11.94;49.28;101268.84;5029525;28;20082;-80
2023/01/02 11:08:23;;;;;;;2.85;1.63;;;;;;;11.96;49.15;101269.59;5031989;28;20037;-80
2023/01/02 11:10:51;;;;;;;3.70;1.70;;;;;;;11.94;49.52;101271.59;5046734;28;20069;-81
2023/01/02 11:13:21;;;;;;;3.28;1.88;;;;;;;11.96;49.59;101266.84;5032983;28;20095;-78
2023/01/02 11:15:53;;;;;;;3.53;1.90;;;;;;;11.95;49.23;101272.47;5042629;28;20545;-80
2023/01/02 11:18:25;;;;;;;3.17;1.90;;;;;;;11.94;49.57;101271.59;5030780;28;20049;-80
2023/01/02 11:20:55;;;;;;;3.53;2.00;;;;;;;11.93;49.27;101286.31;5024703;28;20049;-80
2023/01/02 11:23:25;;;;;;;3.50;1.90;;;;;;;11.94;49.45;101285.31;5028472;28;20057;-79
2023/01/02 11:25:54;;;;;;;3.00;1.70;;;;;;;11.94;49.51;101292.66;5047367;28;20078;-79
2023/01/02 11:28:25;;;;;;;3.42;1.83;;;;;;;11.96;49.55;101293.41;5053928;28;20045;-80
2023/01/02 11:30:55;;;;;;;3.38;1.90;;;;;;;11.95;49.80;101294.41;5036442;28;20061;-79
2023/01/02 11:33:29;;;;;;;5.18;2.15;;;;;;;11.97;49.72;101287.75;5036419;28;20044;-80
2023/01/02 11:36:05;;;;;;;4.15;2.20;;;;;;;11.95;49.49;101291.66;5023500;28;20044;-80
2023/01/02 11:38:42;;;;;;;4.10;2.08;;;;;;;11.96;49.58;101285.19;5048183;28;20664;-81
2023/01/02 11:44:32;;;;;;;3.80;1.90;;;;;;;11.88;49.59;101288.59;5045057;28;20053;-80
2023/01/02 11:47:00;;;;;;;4.10;2.10;;;;;;;11.91;49.02;101292.91;5051883;28;20069;-81
2023/01/02 11:49:37;;;;;;;4.00;2.20;;;;;;;11.92;49.45;101290.03;5049758;28;20056;-81
2023/01/02 11:52:09;;;;;;;3.90;1.90;;;;;;;11.90;49.24;101289.31;5046615;28;20603;-78
2023/01/02 11:54:43;;;;;;;4.15;2.25;;;;;;;11.87;48.90;101289.59;5048789;28;20049;-79
2023/01/02 11:57:16;;;;;;;5.03;2.47;;;;;;;11.88;49.33;101305.03;5062320;28;20106;-80
2023/01/02 11:59:49;;;;;;;4.40;2.40;;;;;;;11.86;49.03;101303.44;5050844;28;20061;-80
2023/01/02 12:02:24;;;;;;;4.35;2.28;;;;;;;11.84;48.95;101313.66;5041237;28;20048;-79
2023/01/02 12:04:54;;;;;;;4.95;2.40;;;;;;;11.84;49.05;101309.03;5040732;28;20045;-80
2023/01/02 12:07:38;;;;;;;4.85;2.63;;;;;;;11.84;49.76;101309.03;5048347;28;20072;-80
2023/01/02 12:10:18;;;;;;;4.68;2.40;;;;;;;11.80;49.00;101304.81;5049425;28;20053;-81